Widen, West Virginia
Current Conditions -  °F | °C
As of 5:54 AM on Wednesday 22 Oct 2014 (Local Time) from KCRW Reporting Station
Overcast Overcast  
Wind Chill: 41°   Ceiling: 900
Heat Index: 45°   Visibility: 8mi
Dew Point: 42°   Wind: 7mph
Humidity: 90%   Direction: 300°WNW
Pressure: 30.12"   Gusts: NA
Location:  38.47°N, 80.86°W
Report Text: KCRW 220954Z 30006KT 8SM OVC009 07/06 A3012 RMK AO2 SLP202 T00720056
Loading
Personal Weather Stations






























Interactive Weather Map
Tropical Storm Tracking
New forecast layout! Learn more

10-Day Weather Forecast

Advertisements
Track Severe Weather on mobile